This is the latest recevied weather packets stored in our database for station/object N0OQA. If no packets are shown the sender has not sent any weather packets the latest 10 day(s).
| Time | Temp. | Humidity | Pressure | Rain* | Wind** | Luminosity | Snow |
|---|---|---|---|---|---|---|---|
| 1777866830 | 13.89° C | 45% | 1004.4 hPa | 0 mm | - | - | - |
| 1777866529 | 13.89° C | 45% | 1004.4 hPa | 0 mm | - | - | - |
| 1777866229 | 13.89° C | 44% | 1004.5 hPa | 0 mm | - | - | - |
| 1777865929 | 13.89° C | 45% | 1004.6 hPa | 0 mm | - | - | - |
| 1777865628 | 13.89° C | 44% | 1004.7 hPa | 0 mm | - | - | - |
| 1777865328 | 13.89° C | 43% | 1004.8 hPa | 0 mm | - | - | - |
| 1777865028 | 13.89° C | 43% | 1004.9 hPa | 0 mm | - | - | - |
| 1777864728 | 13.89° C | 43% | 1005 hPa | 0 mm | - | - | - |
| 1777864427 | 14.44° C | 42% | 1005.1 hPa | 0 mm | - | - | - |
| 1777864127 | 14.44° C | 41% | 1005.3 hPa | 0 mm | - | - | - |
| 1777863226 | 15° C | 40% | 1005.4 hPa | 0 mm | - | - | - |
| 1777862626 | 15.56° C | 38% | 1005.5 hPa | 0 mm | - | - | - |
| 1777862325 | 15.56° C | 37% | 1005.5 hPa | 0 mm | - | - | - |
| 1777862025 | 16.11° C | 36% | 1005.6 hPa | 0 mm | - | - | - |
| 1777860223 | 17.22° C | 33% | 1005.8 hPa | 0 mm | - | - | - |
| 1777822386 | 16.67° C | 47% | 1009.1 hPa | 0 mm | - | - | - |
| 1777812477 | 11.11° C | 62% | 1008 hPa | 0 mm | - | - | - |
| 1777811276 | 11.11° C | 63% | 1007.5 hPa | 0 mm | - | - | - |
| 1777810368 | 10° C | 64% | 1007.3 hPa | 0 mm | - | - | - |
| 1777809467 | 9.44° C | 66% | 1007.1 hPa | 0 mm | - | - | - |
| 1777808866 | 9.44° C | 66% | 1006.9 hPa | 0 mm | - | - | - |
| 1777808566 | 9.44° C | 66% | 1006.9 hPa | 0 mm | - | - | - |
| 1777808266 | 8.89° C | 66% | 1006.8 hPa | 0 mm | - | - | - |
| 1777807966 | 8.89° C | 67% | 1006.8 hPa | 0 mm | - | - | - |
| 1777807666 | 8.89° C | 68% | 1006.6 hPa | 0 mm | - | - | - |
* Rain since midnight (hover to see other rain measurements)
** Current wind speed in m/s (hover to see current wind gust speed)